createdAt,value
2022-10-13T00:00:20.353Z,8.83
2022-10-13T00:05:22.075Z,8.74
2022-10-13T00:10:26.441Z,8.82
2022-10-13T00:15:28.278Z,8.86
2022-10-13T00:20:30.027Z,8.92
2022-10-13T00:25:34.053Z,8.96
2022-10-13T00:30:38.164Z,8.97
2022-10-13T00:35:44.639Z,8.94
2022-10-13T00:40:50.817Z,8.96
2022-10-13T00:45:58.986Z,8.97
2022-10-13T00:51:00.768Z,8.98
2022-10-13T00:56:03.972Z,9.06
2022-10-13T01:01:08.265Z,9.07
2022-10-13T01:06:31.175Z,9.07
2022-10-13T01:11:46.982Z,9.03
2022-10-13T01:17:09.953Z,9.00
2022-10-13T01:22:39.786Z,9.01
2022-10-13T01:27:45.039Z,8.97
2022-10-13T01:33:01.273Z,8.99
2022-10-13T01:38:10.756Z,9.01
2022-10-13T01:43:29.305Z,9.04
2022-10-13T01:48:31.762Z,9.03
2022-10-13T01:53:38.709Z,9.04
2022-10-13T01:58:40.555Z,9.06
2022-10-13T02:04:21.502Z,9.14
2022-10-13T02:09:46.202Z,9.20
2022-10-13T02:14:49.649Z,9.26
2022-10-13T02:19:51.937Z,9.33
2022-10-13T02:24:53.607Z,9.33
2022-10-13T02:29:56.816Z,9.35
2022-10-13T02:35:06.154Z,9.38
2022-10-13T02:40:08.683Z,9.40
2022-10-13T02:45:12.979Z,9.41
2022-10-13T02:50:19.128Z,9.41
2022-10-13T02:55:21.109Z,9.40
2022-10-13T03:00:35.528Z,9.39
2022-10-13T03:05:44.716Z,9.39
2022-10-13T03:10:50.998Z,9.40
2022-10-13T03:15:54.575Z,9.37
2022-10-13T03:21:01.990Z,9.35
2022-10-13T03:26:07.316Z,9.38
2022-10-13T03:31:14.477Z,9.38
2022-10-13T03:36:23.231Z,9.38
2022-10-13T03:41:28.302Z,9.38
2022-10-13T03:46:33.584Z,9.37
2022-10-13T03:51:38.553Z,9.38
2022-10-13T03:56:40.649Z,9.35
2022-10-13T04:01:46.902Z,9.36
2022-10-13T04:06:49.864Z,9.35
2022-10-13T04:11:54.109Z,9.35
2022-10-13T04:16:57.926Z,9.35
2022-10-13T04:22:00.339Z,9.35
2022-10-13T04:27:06.951Z,9.36
2022-10-13T04:32:08.659Z,9.36
2022-10-13T04:37:12.771Z,9.34
2022-10-13T04:42:17.712Z,9.32
2022-10-13T04:47:22.119Z,9.32
2022-10-13T04:52:26.448Z,9.30
2022-10-13T04:57:30.528Z,9.28
2022-10-13T05:02:34.258Z,9.25
2022-10-13T05:07:38.210Z,9.24
2022-10-13T05:12:43.300Z,9.23
2022-10-13T05:17:47.323Z,9.22
2022-10-13T05:22:49.065Z,9.21
2022-10-13T05:27:53.267Z,9.20
2022-10-13T05:33:03.217Z,9.20
2022-10-13T05:38:09.026Z,9.23
2022-10-13T05:43:15.041Z,9.27
2022-10-13T05:48:18.849Z,9.28
2022-10-13T05:53:24.408Z,9.29
2022-10-13T05:58:27.173Z,9.29
2022-10-13T06:03:33.913Z,9.30
2022-10-13T06:08:36.448Z,9.33
2022-10-13T06:13:40.279Z,9.32
2022-10-13T06:18:47.453Z,9.34
2022-10-13T06:23:54.469Z,9.73
2022-10-13T06:29:03.304Z,9.60
2022-10-13T06:34:05.182Z,9.54
2022-10-13T06:39:08.726Z,9.53
2022-10-13T06:44:15.535Z,9.51
2022-10-13T06:49:21.105Z,9.47
2022-10-13T06:54:23.784Z,9.46
2022-10-13T06:59:27.857Z,9.46
2022-10-13T07:04:32.003Z,9.46
2022-10-13T07:09:40.964Z,9.45
2022-10-13T07:14:45.982Z,9.42
2022-10-13T07:19:57.101Z,9.44
2022-10-13T07:25:04.635Z,9.43
2022-10-13T07:30:07.754Z,9.41
2022-10-13T07:35:10.698Z,9.42
2022-10-13T07:40:14.546Z,9.43
2022-10-13T07:45:16.867Z,9.52
2022-10-13T07:50:24.722Z,9.62
2022-10-13T07:55:27.499Z,9.68
2022-10-13T08:00:33.824Z,9.76
2022-10-13T08:05:39.281Z,9.77
2022-10-13T08:10:47.997Z,9.83
2022-10-13T08:15:49.879Z,9.86
2022-10-13T08:20:55.559Z,9.87
2022-10-13T08:25:59.021Z,9.89
2022-10-13T08:31:01.070Z,9.92
2022-10-13T08:36:08.455Z,10.01
2022-10-13T08:41:17.818Z,10.18
2022-10-13T08:46:30.806Z,10.29
2022-10-13T08:51:34.073Z,10.39
2022-10-13T08:56:38.648Z,10.43
2022-10-13T09:01:43.357Z,10.48
2022-10-13T09:07:07.152Z,10.50
2022-10-13T09:12:15.890Z,10.59
2022-10-13T09:17:22.693Z,10.69
2022-10-13T09:22:34.193Z,10.74
2022-10-13T09:27:48.465Z,10.81
2022-10-13T09:33:07.657Z,10.93
2022-10-13T09:38:10.759Z,11.06
2022-10-13T09:43:59.913Z,11.18
2022-10-13T09:49:28.601Z,11.39
2022-10-13T09:54:35.513Z,11.46
2022-10-13T09:59:41.600Z,11.56
2022-10-13T10:04:44.710Z,11.62
2022-10-13T10:09:58.098Z,11.69
2022-10-13T10:15:10.273Z,11.73
2022-10-13T10:20:20.626Z,11.72
2022-10-13T10:25:34.438Z,11.70
2022-10-13T10:30:44.021Z,11.68
2022-10-13T10:36:17.368Z,11.72
2022-10-13T10:41:33.467Z,11.87
2022-10-13T10:46:49.544Z,11.90
2022-10-13T10:51:57.036Z,11.87
2022-10-13T10:57:17.189Z,11.85
2022-10-13T11:02:36.322Z,11.85
2022-10-13T11:07:44.301Z,11.89
2022-10-13T11:12:51.287Z,11.91
2022-10-13T11:17:53.340Z,11.97
2022-10-13T11:23:01.014Z,12.00
2022-10-13T11:28:21.773Z,11.97
2022-10-13T11:33:40.835Z,12.05
2022-10-13T11:38:42.925Z,12.14
2022-10-13T11:44:00.089Z,12.21
2022-10-13T11:49:13.055Z,12.17
2022-10-13T11:54:39.296Z,12.28
2022-10-13T11:59:48.426Z,12.43
2022-10-13T12:05:19.582Z,12.49
2022-10-13T12:10:32.663Z,12.61
2022-10-13T12:15:41.420Z,12.77
2022-10-13T12:20:53.864Z,12.97
2022-10-13T12:25:59.034Z,13.03
2022-10-13T12:31:00.950Z,13.02
2022-10-13T12:36:34.330Z,12.99
2022-10-13T12:41:40.879Z,12.91
2022-10-13T12:46:43.507Z,12.84
2022-10-13T12:52:09.604Z,12.80
2022-10-13T12:57:20.647Z,12.77
2022-10-13T13:02:30.496Z,12.74
2022-10-13T13:07:37.018Z,12.71
2022-10-13T13:12:41.476Z,12.68
2022-10-13T13:17:59.230Z,12.65
2022-10-13T13:23:03.695Z,12.62
2022-10-13T13:28:10.919Z,12.60
2022-10-13T13:33:12.609Z,12.57
2022-10-13T13:38:19.478Z,12.61
2022-10-13T13:43:22.224Z,12.61
2022-10-13T13:48:27.234Z,12.61
2022-10-13T13:53:37.095Z,12.62
2022-10-13T13:58:41.407Z,12.64
2022-10-13T14:03:45.294Z,12.65
2022-10-13T14:08:52.556Z,12.65
2022-10-13T14:13:54.508Z,12.67
2022-10-13T14:19:02.348Z,12.68
2022-10-13T14:24:07.510Z,12.70
2022-10-13T14:29:09.304Z,12.69
2022-10-13T14:34:15.572Z,12.73
2022-10-13T14:39:17.314Z,12.78
2022-10-13T14:44:19.035Z,12.81
2022-10-13T14:49:23.825Z,12.82
2022-10-13T14:54:27.755Z,12.82
2022-10-13T14:59:32.680Z,12.82
2022-10-13T15:04:37.470Z,12.86
2022-10-13T15:09:52.916Z,12.89
2022-10-13T15:15:03.762Z,12.92
2022-10-13T15:20:08.930Z,12.92
2022-10-13T15:25:12.112Z,12.96
2022-10-13T15:30:16.148Z,12.95
2022-10-13T15:35:20.209Z,12.96
2022-10-13T15:40:24.893Z,12.94
2022-10-13T15:45:29.010Z,13.17
2022-10-13T15:50:33.026Z,13.08
2022-10-13T15:55:41.810Z,13.00
2022-10-13T16:00:47.679Z,12.93
2022-10-13T16:05:49.414Z,12.88
2022-10-13T16:10:59.434Z,12.83
2022-10-13T16:16:08.516Z,12.78
2022-10-13T16:21:19.218Z,12.74
2022-10-13T16:26:21.223Z,12.72
2022-10-13T16:31:25.367Z,12.70
2022-10-13T16:36:32.781Z,12.67
2022-10-13T16:41:43.064Z,12.64
2022-10-13T16:46:49.878Z,12.61
2022-10-13T16:51:57.158Z,12.59
2022-10-13T16:56:59.822Z,12.54
2022-10-13T17:02:03.153Z,12.50
2022-10-13T17:07:10.045Z,12.45
2022-10-13T17:12:14.452Z,12.42
2022-10-13T17:17:16.114Z,12.41
2022-10-13T17:22:21.200Z,12.40
2022-10-13T17:27:25.623Z,12.39
2022-10-13T17:32:27.368Z,12.37
2022-10-13T17:37:29.102Z,12.34
2022-10-13T17:42:34.248Z,12.35
2022-10-13T17:47:39.491Z,12.34
2022-10-13T17:52:41.347Z,12.32
2022-10-13T17:57:45.508Z,12.31
2022-10-13T18:02:47.264Z,12.27
2022-10-13T18:07:53.556Z,12.26
2022-10-13T18:12:57.757Z,12.24
2022-10-13T18:18:01.903Z,12.24
2022-10-13T18:23:07.479Z,12.23
2022-10-13T18:28:12.186Z,12.23
2022-10-13T18:33:14.981Z,12.22
2022-10-13T18:38:20.046Z,12.22
2022-10-13T18:43:26.321Z,12.52
2022-10-13T18:48:30.880Z,12.41
2022-10-13T18:53:41.576Z,12.34
2022-10-13T18:58:58.398Z,12.29
2022-10-13T19:04:02.440Z,12.27
2022-10-13T19:09:09.395Z,12.26
2022-10-13T19:14:12.746Z,12.25
2022-10-13T19:19:14.719Z,12.24
2022-10-13T19:24:21.730Z,12.22
2022-10-13T19:29:30.508Z,12.22
2022-10-13T19:34:33.998Z,12.21
2022-10-13T19:39:38.477Z,12.20
2022-10-13T19:44:43.529Z,12.18
2022-10-13T19:49:45.337Z,12.16
2022-10-13T19:54:47.244Z,12.17
2022-10-13T19:59:50.050Z,12.15
2022-10-13T20:04:54.162Z,12.13
2022-10-13T20:09:58.185Z,12.07
2022-10-13T20:15:16.109Z,12.04
2022-10-13T20:20:22.508Z,12.03
2022-10-13T20:25:26.616Z,12.02
2022-10-13T20:30:35.007Z,12.02
2022-10-13T20:35:36.706Z,12.00
2022-10-13T20:40:38.418Z,11.99
2022-10-13T20:45:42.325Z,11.98
2022-10-13T20:50:44.042Z,11.95
2022-10-13T20:55:56.113Z,11.97
2022-10-13T21:00:58.207Z,11.94
2022-10-13T21:06:04.162Z,11.94
2022-10-13T21:11:08.735Z,11.93
2022-10-13T21:16:15.563Z,11.92
2022-10-13T21:21:24.222Z,11.91
2022-10-13T21:26:29.876Z,11.90
2022-10-13T21:31:32.666Z,11.90
2022-10-13T21:36:34.488Z,11.90
2022-10-13T21:41:41.353Z,11.89
2022-10-13T21:46:46.371Z,11.86
2022-10-13T21:51:49.200Z,11.84
2022-10-13T21:56:53.218Z,11.83
2022-10-13T22:01:58.591Z,11.81
2022-10-13T22:07:01.323Z,11.81
2022-10-13T22:12:03.502Z,11.77
2022-10-13T22:17:11.021Z,11.76
2022-10-13T22:22:15.970Z,11.75
2022-10-13T22:27:17.673Z,11.71
2022-10-13T22:32:19.473Z,11.68
2022-10-13T22:37:28.903Z,11.68
2022-10-13T22:42:30.576Z,11.66
2022-10-13T22:47:36.793Z,11.66
2022-10-13T23:33:29.557Z,11.29
2022-10-13T23:38:31.979Z,11.31
2022-10-13T23:43:33.761Z,11.32
2022-10-13T23:48:41.513Z,11.33
2022-10-13T23:53:44.055Z,11.33
2022-10-13T23:58:51.781Z,11.35
